Tiempo atmosférico en la estación meteorológica de Bustillo del Páramo, León (850 m.)



Fecha
DESCASC
Temp. máxima en grados centígrados (hora)
DESCASC
Temp. mínima en grados centígrados (hora)
DESCASC
Temp. media en grados centígrados
DESCASC
Racha de viento máxima en m/sg (hora)
DESCASC
Velocidad máxima media en intervalos de 10 minutos(hora)
DESCASC
Precipitaciones diarias en mm
DESCASC
Precipitaciones de 00:00 a 06:00 en mm
DESCASC
Precipitaciones de 06:00 a 12:00 en mm
DESCASC
Precipitaciones de 12:00 a 18:00 en mm
DESCASC
Precipitaciones de 18:00 a 24:00 en mm
DESCASC
13-06-2019 -- (--) -- (--) -- 11.67 (17:30) 6.94 (17:30) 0 0 0 0 0
12-06-2019 -- (--) -- (--) -- 7.78 (21:10) 5.83 (21:30) 0 0 0 0 0
11-06-2019 -- (--) -- (--) -- 12.22 (12:20) 8.33 (14:50) 0 0 0 0 0
10-06-2019 -- (--) -- (--) -- 11.94 (20:30) 8.61 (20:30) 0 0 0 0 0
09-06-2019 -- (--) -- (--) -- 9.72 (17:00) 6.94 (17:00) 0 0 0 0 0
08-06-2019 -- (--) -- (--) -- 8.61 (21:10) 6.67 (21:10) 0 0 0 0 0
07-06-2019 -- (--) -- (--) -- 14.44 (19:30) 10 (19:40) 0 0 0 0 0
06-06-2019 -- (--) -- (--) -- 16.67 (20:40) 11.94 (17:20) 2 0 0 0 2
05-06-2019 -- (--) -- (--) -- 14.17 (14:50) 10.28 (15:00) 0 0 0 0 0
04-06-2019 -- (--) -- (--) -- 11.67 (15:30) 8.61 (15:30) 0 0 0 0 0
03-06-2019 -- (--) -- (--) -- 12.78 (18:00) 9.72 (19:20) 0 0 0 0 0
02-06-2019 -- (--) -- (--) -- 9.17 (18:00) 6.67 (18:10) 0 0 0 0 0
01-06-2019 -- (--) -- (--) -- 8.89 (21:30) 6.39 (20:40) 0 0 0 0 0
31-05-2019 -- (--) -- (--) -- 6.67 (15:10) 3.89 (00:20) 0 0 0 0 0
30-05-2019 -- (--) -- (--) -- 6.94 (22:40) 5.28 (22:40) 0 0 0 0 0
29-05-2019 -- (--) -- (--) -- 9.72 (01:00) 7.78 (00:50) 0 0 0 0 0
28-05-2019 -- (--) -- (--) -- 13.89 (17:10) 10.28 (17:10) 0 0 0 0 0
27-05-2019 -- (--) -- (--) -- 12.5 (19:40) 8.33 (19:50) 0 0 0 0 0
26-05-2019 -- (--) -- (--) -- 11.11 (16:30) 7.5 (16:40) 0 0 0 0 0
25-05-2019 -- (--) -- (--) -- 13.33 (16:40) 6.94 (19:10) 0 0 0 0 0
24-05-2019 -- (--) -- (--) -- 12.78 (17:00) 9.17 (18:50) 0 0 0 0 0
23-05-2019 -- (--) -- (--) -- -- (--) -- (--) -- -- -- 0 0
22-05-2019 -- (--) -- (--) -- -- (--) -- (--) -- 0 -- -- --
21-05-2019 -- (--) -- (--) -- 9.72 (23:20) 6.39 (23:00) 0 0 0 0 0
20-05-2019 -- (--) -- (--) -- 7.5 (22:00) 5.56 (22:00) 0 0 0 0 0
19-05-2019 -- (--) -- (--) -- 8.89 (16:10) 6.11 (20:50) 0 0 0 0 0
18-05-2019 -- (--) -- (--) -- 13.89 (16:50) 10 (16:40) 0 0 0 0 0
17-05-2019 -- (--) -- (--) -- 16.11 (15:20) 11.67 (15:50) 0 0 0 0 0

Gráficas

Temp. máximas Temp. mínimas Temp. medias Precipitaciones Rachas de viento máximas Velocidades máximas media en intervalos de 10 minutos

Datos horarios

Fecha y hora oficial Temperatura (ºC) Velocidad del viento (km/h) Dirección del viento Racha (km/h) Dirección de racha Precipitación (mm) Presión (hPa) Tendencia (hPa) Humedad (%)
2019-06-15 23:00:00 15.6 10 Noroeste 22 Noroeste 0 -- -- 54
2019-06-15 22:00:00 18.1 14 Noroeste 21 Noroeste 0 -- -- 46
2019-06-15 21:00:00 20.5 6 Sudeste 17 Sudeste 0 -- -- 35
2019-06-15 20:00:00 21.2 9 Sudeste 23 Este 0 -- -- 32
2019-06-15 19:00:00 21.3 9 Este 29 Sudeste 0 -- -- 34
2019-06-15 18:00:00 21 4 Sudeste 24 Sudeste 0 -- -- 34
2019-06-15 17:00:00 20.8 10 Sur 23 Sur 0 -- -- 35
2019-06-15 16:00:00 20 6 Sudeste 21 Sudoeste 0 -- -- 36
2019-06-15 15:00:00 18.9 13 Sur 23 Sur 0 -- -- 37
2019-06-15 14:00:00 17.3 13 Sur 26 Sudoeste 0 -- -- 43
2019-06-15 13:00:00 15.9 4 Sur 15 Sudoeste 0 -- -- 47
2019-06-15 12:00:00 15 9 Sudoeste 23 Sur 0 -- -- 49
2019-06-15 11:00:00 14.1 9 Oeste 21 Oeste 0 -- -- 50
2019-06-15 10:00:00 12.8 16 Oeste 27 Noroeste 0 -- -- 59
2019-06-15 09:00:00 10.6 17 Noroeste 24 Noroeste 0 -- -- 68
2019-06-15 08:00:00 8.4 9 Noroeste 14 Noroeste 0 -- -- 79
2019-06-15 07:00:00 7.1 10 Noroeste 21 Noroeste 0 -- -- 82
2019-06-15 06:00:00 7.7 12 Noroeste 18 Noroeste 0 -- -- 79
2019-06-15 05:00:00 8.4 13 Noroeste 18 Noroeste 0 -- -- 78
2019-06-15 04:00:00 9.3 14 Oeste 20 Oeste 0 -- -- 76
2019-06-15 03:00:00 9.8 15 Oeste 22 Oeste 0 -- -- 74
2019-06-15 02:00:00 10.4 15 Noroeste 24 Noroeste 0 -- -- 69
2019-06-15 01:00:00 11.5 13 Noroeste 30 Oeste 0 -- -- 65
2019-06-15 00:00:00 12.7 17 Oeste 28 Oeste 0 -- -- 57
2019-06-14 23:00:00 13.6 21 Oeste 33 Oeste 0 -- -- 53
2019-06-14 22:00:00 14.9 24 Oeste 41 Oeste 0 -- -- 47
2019-06-14 21:00:00 16.2 30 Oeste 38 Oeste 0 -- -- 43
2019-06-14 20:00:00 18.4 28 Oeste 39 Oeste 0 -- -- 36
2019-06-14 19:00:00 19.9 22 Oeste 34 Oeste 0 -- -- 38
2019-06-14 18:00:00 20.7 23 Oeste 36 Sudoeste 0 -- -- 37
2019-06-14 17:00:00 21.5 18 Sudoeste 30 Sudoeste 0 -- -- 29
2019-06-14 16:00:00 21.7 17 Sur 30 Sur 0 -- -- 30
2019-06-14 15:00:00 20.1 15 Sudeste 26 Sudeste 0 -- -- 38
2019-06-14 14:00:00 19.2 10 Oeste 29 Sur 0 -- -- 37
2019-06-14 13:00:00 18.2 8 Sudoeste 18 Sur 0 -- -- 39
2019-06-14 12:00:00 16.5 3 Oeste 10 Sudoeste 0 -- -- 48
2019-06-14 11:00:00 14.6 4 Sudoeste 8 Noroeste 0 -- -- 55
2019-06-14 10:00:00 12.6 5 Noroeste 13 Noroeste 0 -- -- 62
2019-06-14 09:00:00 10.1 12 Noroeste 17 Noroeste 0 -- -- 70
2019-06-14 08:00:00 6.8 10 Noroeste 17 Noroeste 0 -- -- 81
2019-06-14 07:00:00 4.6 9 Noroeste 12 Noroeste 0 -- -- 87
2019-06-14 06:00:00 4.9 6 Noroeste 9 Noroeste 0 -- -- 87
2019-06-14 05:00:00 5.4 5 Noroeste 8 Norte 0 -- -- 84
2019-06-14 04:00:00 6.3 4 Norte 8 Nordeste 0 -- -- 81
2019-06-14 03:00:00 7.5 4 Nordeste 15 Nordeste 0 -- -- 79
2019-06-14 02:00:00 8.1 5 Norte 15 Nordeste 0 -- -- 78
2019-06-14 01:00:00 9.2 7 Noroeste 12 Noroeste 0 -- -- 72
2019-06-14 00:00:00 11.1 8 Norte 21 Noroeste 0 -- -- 64
2019-06-13 23:00:00 12.9 11 Noroeste 27 Oeste 0 -- -- 50
2019-06-13 22:00:00 14.8 22 Oeste 33 Oeste 0 -- -- 45
2019-06-13 21:00:00 17.5 23 Oeste 32 Oeste 0 -- -- 40
2019-06-13 20:00:00 19.1 19 Oeste 30 Sur 0 -- -- 37
2019-06-13 19:00:00 20.7 21 Sudoeste 36 Sudoeste 0 -- -- 23
2019-06-13 18:00:00 21.4 19 Sur 42 Sudoeste 0 -- -- 26
2019-06-13 17:00:00 21.1 21 Sudoeste 37 Sudoeste 0 -- -- 24
2019-06-13 16:00:00 19.8 21 Sur 33 Sur 0 -- -- 31
2019-06-13 15:00:00 19.3 18 Sur 27 Sudoeste 0 -- -- 36
2019-06-13 14:00:00 17.6 14 Sudoeste 30 Sur 0 -- -- 41
2019-06-13 13:00:00 16.9 13 Sur 27 Sur 0 -- -- 42
2019-06-13 12:00:00 15.1 5 Sur 17 Sudeste 0 -- -- 49
2019-06-13 11:00:00 13.7 8 Sudeste 13 Sudeste 0 -- -- 54
2019-06-13 10:00:00 12.5 3 Sur 14 Noroeste 0 -- -- 58
2019-06-13 09:00:00 9.7 9 Noroeste 18 Noroeste 0 -- -- 69
2019-06-13 08:00:00 6.4 11 Noroeste 17 Noroeste 0 -- -- 79
2019-06-13 07:00:00 4.4 9 Noroeste 16 Noroeste 0 -- -- 85
2019-06-13 06:00:00 5.1 8 Noroeste 14 Noroeste 0 -- -- 83
2019-06-13 05:00:00 5.5 10 Noroeste 14 Noroeste 0 -- -- 82
2019-06-13 04:00:00 5.8 8 Norte 12 Norte 0 -- -- 81
2019-06-13 03:00:00 6.7 7 Norte 13 Norte 0 -- -- 77
2019-06-13 02:00:00 7.7 7 Nordeste 16 Norte 0 -- -- 74
2019-06-13 01:00:00 8.6 9 Norte 14 Norte 0 -- -- 71
2019-06-13 00:00:00 10.2 10 Norte 18 Norte 0 -- -- 66
2019-06-12 23:00:00 12.2 13 Noroeste 19 Noroeste 0 -- -- 58
2019-06-12 22:00:00 14.9 15 Noroeste 28 Oeste 0 -- -- 42
2019-06-12 21:00:00 18 12 Noroeste 23 Oeste 0 -- -- 35
2019-06-12 20:00:00 18.2 9 Sudoeste 27 Sudoeste 0 -- -- 31
2019-06-12 19:00:00 18.6 5 Sudeste 20 Sudeste 0 -- -- 28
2019-06-12 18:00:00 17.8 10 Este 26 Sudeste 0 -- -- 31
2019-06-12 17:00:00 18.7 9 Sudeste 25 Este 0 -- -- 29
2019-06-12 16:00:00 17.4 8 Sudeste 22 Sur 0 -- -- 30
2019-06-12 15:00:00 16.6 8 Sudoeste 27 Sudoeste 0 -- -- 30
2019-06-12 14:00:00 15.7 6 Sudoeste 21 Sudoeste 0 -- -- 34
2019-06-12 13:00:00 14.1 6 Oeste 21 Oeste 0 -- -- 38
2019-06-12 12:00:00 12.8 5 Noroeste 20 Noroeste 0 -- -- 43
2019-06-12 11:00:00 11.6 10 Oeste 19 Oeste 0 -- -- 46
2019-06-12 10:00:00 10 12 Noroeste 22 Oeste 0 -- -- 58
2019-06-12 09:00:00 7.4 11 Noroeste 17 Oeste 0 -- -- 71
2019-06-12 08:00:00 5.2 10 Noroeste 14 Noroeste 0 -- -- 80
2019-06-12 07:00:00 2.8 5 Norte 9 Oeste 0 -- -- 86
2019-06-12 06:00:00 3.2 3 Oeste 9 Oeste 0 -- -- 81
2019-06-12 05:00:00 4.3 10 Noroeste 17 Noroeste 0 -- -- 79
2019-06-12 04:00:00 4.7 10 Noroeste 13 Noroeste 0 -- -- 73
2019-06-12 03:00:00 4.7 6 Noroeste 11 Noroeste 0 -- -- 72
2019-06-12 02:00:00 5.8 6 Norte 16 Noroeste 0 -- -- 66
2019-06-12 01:00:00 7 15 Noroeste 24 Noroeste 0 -- -- 64
2019-06-12 00:00:00 8.2 15 Noroeste 25 Noroeste 0 -- -- 58
2019-06-11 23:00:00 9.4 15 Noroeste 31 Noroeste 0 -- -- 56
2019-06-11 22:00:00 10.9 21 Noroeste 36 Noroeste 0 -- -- 50
2019-06-11 21:00:00 13.2 23 Noroeste 37 Noroeste 0 -- -- 42
2019-06-11 20:00:00 15 24 Noroeste 37 Noroeste 0 -- -- 40
2019-06-11 19:00:00 15.9 22 Noroeste 38 Noroeste 0 -- -- 38
2019-06-11 18:00:00 16.6 27 Noroeste 42 Norte 0 -- -- 36
2019-06-11 17:00:00 16.8 24 Noroeste 40 Noroeste 0 -- -- 36
2019-06-11 16:00:00 16 24 Norte 44 Norte 0 -- -- 38
2019-06-11 15:00:00 15.5 26 Norte 42 Norte 0 -- -- 36
2019-06-11 14:00:00 15.1 22 Norte 40 Noroeste 0 -- -- 36
2019-06-11 13:00:00 14.3 24 Norte 44 Norte 0 -- -- 39
2019-06-11 12:00:00 13.1 21 Norte 37 Noroeste 0 -- -- 41
2019-06-11 11:00:00 12.3 24 Noroeste 37 Noroeste 0 -- -- 43
2019-06-11 10:00:00 11.1 16 Noroeste 33 Noroeste 0 -- -- 55
2019-06-11 09:00:00 9.5 17 Noroeste 23 Noroeste 0 -- -- 63
2019-06-11 08:00:00 7.5 8 Noroeste 13 Noroeste 0 -- -- 71
2019-06-11 07:00:00 5.8 4 Noroeste 16 Noroeste 0 -- -- 78
2019-06-11 06:00:00 6.1 11 Oeste 15 Oeste 0 -- -- 77
2019-06-11 05:00:00 7 0 Calma 16 Noroeste 0 -- -- 70
2019-06-11 04:00:00 7.8 6 Noroeste 17 Noroeste 0 -- -- 67
2019-06-11 03:00:00 9.2 14 Noroeste 20 Noroeste 0 -- -- 60
2019-06-11 02:00:00 10.6 11 Noroeste 19 Noroeste 0 -- -- 63
2019-06-11 01:00:00 11 12 Noroeste 23 Norte 0 -- -- 64
2019-06-11 00:00:00 11.5 11 Norte 24 Noroeste 0 -- -- 63
2019-06-10 23:00:00 12.3 22 Noroeste 32 Noroeste 0 -- -- 62
2019-06-10 22:00:00 14.7 26 Noroeste 37 Oeste 0 -- -- 46
2019-06-10 21:00:00 15.6 27 Oeste 43 Oeste 0 -- -- 43
2019-06-10 20:00:00 16.5 25 Noroeste 39 Oeste 0 -- -- 40
2019-06-10 19:00:00 17.7 24 Oeste 34 Oeste 0 -- -- 36
2019-06-10 18:00:00 17.5 20 Oeste 32 Noroeste 0 -- -- 37
2019-06-10 17:00:00 18.8 19 Oeste 37 Noroeste 0 -- -- 35
2019-06-10 16:00:00 19.9 16 Noroeste 33 Noroeste 0 -- -- 27
2019-06-10 15:00:00 19 15 Oeste 29 Oeste 0 -- -- 31
2019-06-10 14:00:00 18.1 12 Oeste 31 Sudoeste 0 -- -- 29
2019-06-10 13:00:00 15.7 6 Sur 17 Noroeste 0 -- -- 42
2019-06-10 12:00:00 14.6 5 Noroeste 15 Noroeste 0 -- -- 48
2019-06-10 11:00:00 13.1 6 Noroeste 13 Noroeste 0 -- -- 52
2019-06-10 10:00:00 11.2 5 Norte 13 Noroeste 0 -- -- 65
2019-06-10 09:00:00 9.1 8 Norte 15 Noroeste 0 -- -- 72
2019-06-10 08:00:00 5.5 7 Norte 11 Noroeste 0 -- -- 83
2019-06-10 07:00:00 4.1 7 Noroeste 10 Noroeste 0 -- -- 87
2019-06-10 06:00:00 4.3 5 Norte 10 Noroeste 0 -- -- 86
2019-06-10 05:00:00 5 5 Noroeste 9 Noroeste 0 -- -- 84
2019-06-10 04:00:00 5.9 5 Noroeste 9 Norte 0 -- -- 82
2019-06-10 03:00:00 6.4 4 Norte 11 Norte 0 -- -- 80
2019-06-10 02:00:00 7.4 6 Norte 12 Noroeste 0 -- -- 77
2019-06-10 01:00:00 8.4 10 Norte 17 Norte 0 -- -- 74
2019-06-10 00:00:00 9.6 7 Nordeste 20 Norte 0 -- -- 71
2019-06-09 23:00:00 11 8 Nordeste 22 Norte 0 -- -- 66
2019-06-09 22:00:00 13.3 13 Norte 31 Norte 0 -- -- 58
2019-06-09 21:00:00 15.3 20 Norte 33 Norte 0 -- -- 53
2019-06-09 20:00:00 17 21 Noroeste 35 Noroeste 0 -- -- 49
2019-06-09 19:00:00 19.8 22 Oeste 32 Oeste 0 -- -- 36
2019-06-09 18:00:00 19.9 18 Oeste 30 Noroeste 0 -- -- 37
2019-06-09 17:00:00 19.7 25 Noroeste 35 Noroeste 0 -- -- 34
2019-06-09 16:00:00 20.4 9 Oeste 28 Oeste 0 -- -- 32
2019-06-09 15:00:00 19 7 Oeste 17 Sudoeste 0 -- -- 41
2019-06-09 14:00:00 19.1 8 Oeste 23 Oeste 0 -- -- 42
2019-06-09 13:00:00 17.8 10 Sudoeste 26 Oeste 0 -- -- 49
2019-06-09 12:00:00 15.7 10 Sudoeste 18 Sudoeste 0 -- -- 56
2019-06-09 11:00:00 14 7 Oeste 15 Oeste 0 -- -- 64
2019-06-09 10:00:00 12.8 5 Oeste 14 Noroeste 0 -- -- 69
2019-06-09 09:00:00 10.9 9 Noroeste 17 Noroeste 0 -- -- 74
2019-06-09 08:00:00 9.3 5 Norte 9 Noroeste 0 -- -- 79
2019-06-09 07:00:00 6.9 6 Norte 12 Norte 0 -- -- 85
2019-06-09 06:00:00 7.3 7 Norte 10 Norte 0 -- -- 84
2019-06-09 05:00:00 8 8 Norte 12 Norte 0 -- -- 82
2019-06-09 04:00:00 8.8 5 Norte 13 Noroeste 0 -- -- 79
2019-06-09 03:00:00 10.4 10 Noroeste 14 Oeste 0 -- -- 75
2019-06-09 02:00:00 11.3 8 Oeste 13 Noroeste 0 -- -- 72
2019-06-09 01:00:00 12.8 9 Noroeste 22 Norte 0 -- -- 66
2019-06-09 00:00:00 13.8 15 Norte 27 Noroeste 0 -- -- 62
2019-06-08 23:00:00 14.9 15 Noroeste 28 Noroeste 0 -- -- 55
2019-06-08 22:00:00 16.4 16 Noroeste 31 Noroeste 0 -- -- 51
2019-06-08 21:00:00 19.5 7 Oeste 26 Noroeste 0 -- -- 37
2019-06-08 20:00:00 20.1 3 Este 22 Norte 0 -- -- 30
2019-06-08 19:00:00 20.7 7 Oeste 16 Oeste 0 -- -- 31
2019-06-08 18:00:00 20.1 8 Noroeste 15 Sudoeste 0 -- -- 31
2019-06-08 17:00:00 19.6 11 Sudoeste 22 Sudeste 0 -- -- 32
2019-06-08 16:00:00 19.4 14 Sudoeste 24 Sur 0 -- -- 33
2019-06-08 15:00:00 18.3 12 Sur 24 Sur 0 -- -- 36
2019-06-08 14:00:00 17.7 14 Sudeste 22 Sudeste 0 -- -- 36
2019-06-08 13:00:00 15.5 9 Este 24 Este 0 -- -- 45
2019-06-08 12:00:00 13.9 6 Este 15 Nordeste 0 -- -- 51
2019-06-08 11:00:00 12.2 5 Este 17 Este 0 -- -- 60
2019-06-08 10:00:00 10.7 8 Este 21 Nordeste 0 -- -- 68
2019-06-08 09:00:00 7.6 5 Norte 9 Norte 0 -- -- 78
2019-06-08 08:00:00 4.4 4 Norte 12 Noroeste 0 -- -- 85
2019-06-08 07:00:00 3.2 8 Norte 13 Noroeste 0 -- -- 86
2019-06-08 06:00:00 3.8 9 Norte 12 Norte 0 -- -- 85
2019-06-08 05:00:00 3.4 6 Norte 11 Noroeste 0 -- -- 86
2019-06-08 04:00:00 3.6 4 Norte 12 Norte 0 -- -- 86
2019-06-08 03:00:00 4.3 7 Noroeste 11 Noroeste 0 -- -- 84
2019-06-08 02:00:00 5.2 6 Norte 13 Oeste 0 -- -- 84
2019-06-08 01:00:00 6.5 11 Oeste 17 Oeste 0 -- -- 81
2019-06-08 00:00:00 7.3 12 Oeste 28 Noroeste 0 -- -- 77
2019-06-07 23:00:00 8.8 17 Noroeste 26 Noroeste 0 -- -- 69
2019-06-07 22:00:00 9.8 16 Noroeste 31 Noroeste 0 -- -- 63
2019-06-07 21:00:00 11.6 22 Noroeste 45 Noroeste 0 -- -- 54
2019-06-07 20:00:00 12.6 30 Oeste 52 Oeste 0 -- -- 52
2019-06-07 19:00:00 15.6 25 Oeste 43 Oeste 0 -- -- 36
2019-06-07 18:00:00 14.4 26 Noroeste 48 Oeste 0 -- -- 47
2019-06-07 17:00:00 15.6 35 Oeste 49 Noroeste 0 -- -- 46
2019-06-07 16:00:00 16.1 24 Oeste 39 Oeste 0 -- -- 36
2019-06-07 15:00:00 14.8 24 Oeste 40 Oeste 0 -- -- 40
2019-06-07 14:00:00 13.1 24 Oeste 37 Noroeste 0 -- -- 48
2019-06-07 13:00:00 11.7 20 Oeste 43 Oeste 0 -- -- 55
2019-06-07 12:00:00 11.2 31 Oeste 46 Oeste 0 -- -- 55
2019-06-07 11:00:00 9.6 27 Oeste 44 Oeste 0 -- -- 60
2019-06-07 10:00:00 9 26 Oeste 45 Oeste 0 -- -- 65
2019-06-07 09:00:00 7.8 24 Oeste 37 Oeste 0 -- -- 71
2019-06-07 08:00:00 6.4 19 Oeste 39 Oeste 0 -- -- 78
2019-06-07 07:00:00 5.8 27 Oeste 37 Sudoeste 0 -- -- 78
2019-06-07 06:00:00 5.9 21 Oeste 35 Oeste 0 -- -- 80
2019-06-07 05:00:00 6.5 19 Oeste 30 Oeste 0 -- -- 80
2019-06-07 04:00:00 6.2 15 Sudoeste 37 Sudoeste 0 -- -- 80
2019-06-07 03:00:00 6.8 21 Sudoeste 35 Sudoeste 0 -- -- 79
2019-06-07 02:00:00 6.8 10 Sudoeste 14 Sudoeste 0 -- -- 90
2019-06-07 01:00:00 7.4 11 Sudoeste 19 Sudoeste 0 -- -- 88
2019-06-07 00:00:00 8.1 10 Sudoeste 17 Sudoeste 0 -- -- 83
2019-06-06 23:00:00 8.5 8 Oeste 20 Sudoeste 0 -- -- 86
2019-06-06 22:00:00 9.7 17 Sudoeste 52 Sudoeste 0.4 -- -- 84
2019-06-06 21:00:00 10.7 32 Sudoeste 60 Sur 0.4 -- -- 87
2019-06-06 20:00:00 11.8 27 Sur 45 Sur 1 -- -- 87
2019-06-06 19:00:00 12 26 Sudoeste 42 Sudoeste 0.2 -- -- 80
2019-06-06 18:00:00 14.6 34 Sudoeste 59 Sur 0 -- -- 57
2019-06-06 17:00:00 17.2 38 Sur 53 Sur 0 -- -- 39
2019-06-06 16:00:00 16.8 31 Sur 50 Sur 0 -- -- 38
2019-06-06 15:00:00 14.9 28 Sur 47 Sudeste 0 -- -- 42
2019-06-06 14:00:00 15 29 Sur 43 Sur 0 -- -- 43
2019-06-06 13:00:00 14.1 21 Sur 39 Sur 0 -- -- 46
2019-06-06 12:00:00 13.3 19 Sudeste 31 Sur 0 -- -- 49
2019-06-06 11:00:00 10.9 14 Sudeste 25 Sudeste 0 -- -- 62
2019-06-06 10:00:00 8.6 8 Sudeste 14 Sudeste 0 -- -- 70
2019-06-06 09:00:00 6.4 5 Sudeste 10 Sudeste 0 -- -- 75
2019-06-06 08:00:00 4.8 4 Nordeste 7 Nordeste 0 -- -- 82
2019-06-06 07:00:00 2.5 0 Calma 9 Noroeste 0 -- -- 85
2019-06-06 06:00:00 3.5 4 Noroeste 6 Noroeste 0 -- -- 84
2019-06-06 05:00:00 4.4 3 Noroeste 10 Noroeste 0 -- -- 85
2019-06-06 04:00:00 5.3 8 Noroeste 14 Noroeste 0 -- -- 84
2019-06-06 03:00:00 5.9 12 Noroeste 17 Noroeste 0 -- -- 82
2019-06-06 02:00:00 6.8 13 Noroeste 23 Noroeste 0 -- -- 78
2019-06-06 01:00:00 8.1 17 Noroeste 27 Noroeste 0 -- -- 71
2019-06-06 00:00:00 8.4 10 Noroeste 23 Oeste 0 -- -- 66
2019-06-05 23:00:00 8.7 19 Noroeste 34 Noroeste 0 -- -- 66
2019-06-05 22:00:00 9.3 19 Oeste 42 Oeste 0 -- -- 62
2019-06-05 21:00:00 10.4 28 Noroeste 45 Oeste 0 -- -- 57
2019-06-05 20:00:00 12.9 26 Oeste 41 Oeste 0 -- -- 47
2019-06-05 19:00:00 13.5 26 Oeste 50 Oeste 0 -- -- 41
2019-06-05 18:00:00 14.4 31 Oeste 42 Oeste 0 -- -- 47
2019-06-05 17:00:00 15.1 33 Oeste 45 Oeste 0 -- -- 44
2019-06-05 16:00:00 15.1 24 Oeste 47 Oeste 0 -- -- 41
2019-06-05 15:00:00 14.7 37 Oeste 51 Oeste 0 -- -- 46
2019-06-05 14:00:00 14.3 19 Oeste 45 Oeste 0 -- -- 44
2019-06-05 13:00:00 14.6 31 Oeste 47 Oeste 0 -- -- 48
2019-06-05 12:00:00 13.2 25 Oeste 45 Oeste 0 -- -- 52
2019-06-05 11:00:00 12.1 30 Oeste 44 Oeste 0 -- -- 56
2019-06-05 10:00:00 10.9 26 Oeste 39 Oeste 0 -- -- 62
2019-06-05 09:00:00 9.6 24 Noroeste 38 Oeste 0 -- -- 70
2019-06-05 08:00:00 6.9 18 Noroeste 27 Oeste 0 -- -- 83
2019-06-05 07:00:00 6.5 18 Oeste 29 Oeste 0 -- -- 84
2019-06-05 06:00:00 6.6 21 Oeste 31 Noroeste 0 -- -- 82
2019-06-05 05:00:00 7.9 22 Noroeste 33 Oeste 0 -- -- 77
2019-06-05 04:00:00 8.1 17 Oeste 27 Noroeste 0 -- -- 80
2019-06-05 03:00:00 7.8 13 Noroeste 30 Oeste 0 -- -- 80
2019-06-05 02:00:00 8.4 23 Oeste 34 Oeste 0 -- -- 77
2019-06-05 01:00:00 9.4 15 Noroeste 28 Oeste 0 -- -- 73
2019-06-05 00:00:00 10.6 21 Noroeste 32 Oeste 0 -- -- 68
2019-06-04 23:00:00 11.9 22 Oeste 36 Oeste 0 -- -- 61
2019-06-04 22:00:00 13.7 26 Oeste 36 Oeste 0 -- -- 55
2019-06-04 21:00:00 15.9 23 Oeste 33 Oeste 0 -- -- 41
2019-06-04 20:00:00 16.8 23 Noroeste 35 Oeste 0 -- -- 44
2019-06-04 19:00:00 17 21 Oeste 33 Oeste 0 -- -- 46
2019-06-04 18:00:00 15.7 21 Oeste 37 Oeste 0 -- -- 56
2019-06-04 17:00:00 17.2 29 Oeste 40 Oeste 0 -- -- 47
2019-06-04 16:00:00 17.7 28 Oeste 42 Oeste 0 -- -- 51
2019-06-04 15:00:00 19.5 13 Oeste 27 Noroeste 0 -- -- 50
2019-06-04 14:00:00 18.6 12 Noroeste 26 Sudoeste 0 -- -- 54
2019-06-04 13:00:00 19 8 Sudeste 25 Sur 0 -- -- 50
2019-06-04 12:00:00 18 12 Sudeste 21 Sudeste 0 -- -- 55
2019-06-04 11:00:00 16.7 8 Sudeste 17 Oeste 0 -- -- 59
2019-06-04 10:00:00 15 12 Oeste 32 Oeste 0 -- -- 61
2019-06-04 09:00:00 13.6 19 Oeste 32 Oeste 0 -- -- 72
2019-06-04 08:00:00 11.6 4 Sur 7 Sur 0 -- -- 84
2019-06-04 07:00:00 10.5 6 Sudoeste 8 Sudoeste 0 -- -- 86
2019-06-04 06:00:00 10.9 4 Sur 10 Sur 0 -- -- 84
2019-06-04 05:00:00 11.4 9 Sur 13 Sur 0 -- -- 82
2019-06-04 04:00:00 12.4 2 Sur 7 Sur 0 -- -- 77
2019-06-04 03:00:00 13.8 3 Sudeste 5 Sudoeste 0 -- -- 73
2019-06-04 02:00:00 14.9 3 Sudoeste 11 Sudoeste 0 -- -- 74
2019-06-04 01:00:00 16.1 10 Oeste 14 Oeste 0 -- -- 74
2019-06-04 00:00:00 17.4 12 Oeste 16 Oeste 0 -- -- 69
2019-06-03 23:00:00 18.9 10 Oeste 19 Oeste 0 -- -- 63
2019-06-03 22:00:00 20.9 15 Oeste 21 Oeste 0 -- -- 56
2019-06-03 21:00:00 23.3 10 Oeste 37 Sudoeste 0 -- -- 47
2019-06-03 20:00:00 25 27 Sudoeste 46 Sudoeste 0 -- -- 36
2019-06-03 19:00:00 26.1 32 Sur 45 Sur 0 -- -- 34
2019-06-03 18:00:00 27.1 32 Sudoeste 46 Sur 0 -- -- 32
2019-06-03 17:00:00 27.7 27 Sur 40 Sur 0 -- -- 32
2019-06-03 16:00:00 27.4 24 Sur 41 Sudoeste 0 -- -- 33
2019-06-03 15:00:00 25.8 6 Sur 27 Sur 0 -- -- 35
2019-06-03 14:00:00 24.7 13 Sur 24 Sur 0 -- -- 36
2019-06-03 13:00:00 23.8 8 Sur 19 Sur 0 -- -- 36
2019-06-03 12:00:00 22.3 8 Sudoeste 18 Sudoeste 0 -- -- 38
2019-06-03 11:00:00 21 8 Oeste 18 Noroeste 0 -- -- 40
2019-06-03 10:00:00 18.3 13 Noroeste 20 Noroeste 0 -- -- 48
2019-06-03 09:00:00 16.3 12 Noroeste 15 Noroeste 0 -- -- 57
2019-06-03 08:00:00 14.9 5 Noroeste 11 Noroeste 0 -- -- 62
2019-06-03 07:00:00 15.2 11 Noroeste 21 Oeste 0 -- -- 59
2019-06-03 06:00:00 15.3 6 Noroeste 13 Oeste 0 -- -- 59
2019-06-03 05:00:00 16.3 9 Noroeste 21 Oeste 0 -- -- 56
2019-06-03 04:00:00 17.4 12 Noroeste 20 Noroeste 0 -- -- 49
2019-06-03 03:00:00 16.7 8 Oeste 10 Oeste 0 -- -- 51
2019-06-03 02:00:00 17.4 3 Noroeste 14 Oeste 0 -- -- 44
2019-06-03 01:00:00 18.4 6 Oeste 16 Noroeste 0 -- -- 39
2019-06-03 00:00:00 20 12 Noroeste 19 Oeste 0 -- -- 37
2019-06-02 23:00:00 20.6 8 Oeste 11 Oeste 0 -- -- 42
2019-06-02 22:00:00 22 6 Oeste 16 Oeste 0 -- -- 36
2019-06-02 21:00:00 24 10 Oeste 23 Oeste 0 -- -- 31
2019-06-02 20:00:00 24.9 14 Oeste 25 Oeste 0 -- -- 30
2019-06-02 19:00:00 26 17 Oeste 32 Noroeste 0 -- -- 28
2019-06-02 18:00:00 28.2 21 Oeste 33 Noroeste 0 -- -- 25
2019-06-02 17:00:00 27.9 15 Noroeste 27 Noroeste 0 -- -- 23
2019-06-02 16:00:00 27.8 7 Noroeste 16 Oeste 0 -- -- 23
2019-06-02 15:00:00 26.8 7 Norte 18 Norte 0 -- -- 25
2019-06-02 14:00:00 26.4 9 Noroeste 16 Noroeste 0 -- -- 25
2019-06-02 13:00:00 25.6 7 Sudoeste 21 Sur 0 -- -- 25
2019-06-02 12:00:00 24.6 8 Sur 17 Sudoeste 0 -- -- 27
2019-06-02 11:00:00 23.4 9 Sudoeste 15 Sudoeste 0 -- -- 34
2019-06-02 10:00:00 20.7 11 Noroeste 20 Noroeste 0 -- -- 39
2019-06-02 09:00:00 16.1 10 Noroeste 19 Noroeste 0 -- -- 59
2019-06-02 08:00:00 13.6 12 Noroeste 19 Norte 0 -- -- 67
2019-06-02 07:00:00 13.2 12 Noroeste 17 Noroeste 0 -- -- 71
2019-06-02 06:00:00 13.9 9 Noroeste 14 Noroeste 0 -- -- 71
2019-06-02 05:00:00 15 11 Noroeste 16 Noroeste 0 -- -- 64
2019-06-02 04:00:00 16.2 14 Noroeste 17 Noroeste 0 -- -- 58
2019-06-02 03:00:00 16 9 Norte 13 Noroeste 0 -- -- 59
2019-06-02 02:00:00 17.3 9 Noroeste 16 Noroeste 0 -- -- 54
2019-06-02 01:00:00 19.9 15 Noroeste 21 Noroeste 0 -- -- 45
2019-06-02 00:00:00 20.5 12 Noroeste 15 Oeste 0 -- -- 44
2019-06-01 23:00:00 23.7 15 Oeste 27 Oeste 0 -- -- 34
2019-06-01 22:00:00 26.1 19 Oeste 32 Oeste 0 -- -- 32
2019-06-01 21:00:00 28.7 21 Oeste 32 Oeste 0 -- -- 29
2019-06-01 20:00:00 29.1 20 Noroeste 26 Noroeste 0 -- -- 29
2019-06-01 19:00:00 31.2 10 Oeste 22 Oeste 0 -- -- 23
2019-06-01 18:00:00 31.9 7 Sudeste 21 Sur 0 -- -- 21
2019-06-01 17:00:00 31.2 9 Sudeste 22 Sudoeste 0 -- -- 23
2019-06-01 16:00:00 30.7 10 Sudeste 28 Sur 0 -- -- 22
2019-06-01 15:00:00 29.7 8 Sudoeste 29 Sur 0 -- -- 25
2019-06-01 14:00:00 29.2 9 Sur 19 Sudoeste 0 -- -- 25
2019-06-01 13:00:00 27.8 8 Sudoeste 14 Sur 0 -- -- 28
2019-06-01 12:00:00 25.6 4 Este 10 Este 0 -- -- 32
2019-06-01 11:00:00 23.8 2 Sudoeste 12 Este 0 -- -- 35
2019-06-01 10:00:00 22.3 6 Este 11 Este 0 -- -- 38
2019-06-01 09:00:00 18.9 0 Calma 10 Norte 0 -- -- 52
2019-06-01 08:00:00 14.5 8 Norte 13 Norte 0 -- -- 64
2019-06-01 07:00:00 11.8 9 Norte 14 Norte 0 -- -- 71
2019-06-01 06:00:00 12.4 7 Norte 13 Noroeste 0 -- -- 69
2019-06-01 05:00:00 13.1 9 Noroeste 16 Noroeste 0 -- -- 68
2019-06-01 04:00:00 13.6 8 Noroeste 12 Noroeste 0 -- -- 66
2019-06-01 03:00:00 14.4 8 Norte 10 Norte 0 -- -- 61
2019-06-01 02:00:00 16.2 9 Norte 12 Norte 0 -- -- 54
2019-06-01 01:00:00 18.9 9 Nordeste 17 Nordeste 0 -- -- 46
2019-06-01 00:00:00 19.3 10 Norte 18 Norte 0 -- -- 44
2019-05-31 23:00:00 22.1 3 Sudeste 8 Este 0 -- -- 30
2019-05-31 22:00:00 25.2 5 Sudeste 10 Este 0 -- -- 25
2019-05-31 21:00:00 27.6 6 Sudeste 16 Sudeste 0 -- -- 20
2019-05-31 20:00:00 29 10 Sudeste 19 Este 0 -- -- 15
2019-05-31 19:00:00 29.6 9 Sudeste 19 Este 0 -- -- 15
2019-05-31 18:00:00 29.7 9 Sudeste 21 Este 0 -- -- 17
2019-05-31 17:00:00 29.4 7 Sur 18 Este 0 -- -- 17
2019-05-31 16:00:00 28.4 7 Nordeste 24 Norte 0 -- -- 20
2019-05-31 15:00:00 27.6 5 Este 18 Este 0 -- -- 22
2019-05-31 14:00:00 26.9 5 Este 17 Sudoeste 0 -- -- 22
2019-05-31 13:00:00 26.1 6 Sur 15 Sur 0 -- -- 24
2019-05-31 12:00:00 24.5 4 Sur 11 Sur 0 -- -- 31
2019-05-31 11:00:00 22.3 4 Sudoeste 12 Oeste 0 -- -- 37
2019-05-31 10:00:00 20.1 8 Noroeste 16 Noroeste 0 -- -- 50
2019-05-31 09:00:00 16.8 12 Noroeste 18 Noroeste 0 -- -- 58
2019-05-31 08:00:00 12.8 12 Noroeste 18 Noroeste 0 -- -- 69
2019-05-31 07:00:00 10.7 12 Noroeste 18 Noroeste 0 -- -- 75
2019-05-31 06:00:00 11.4 10 Noroeste 18 Noroeste 0 -- -- 74
2019-05-31 05:00:00 12.2 9 Noroeste 15 Noroeste 0 -- -- 72
2019-05-31 04:00:00 13.2 8 Noroeste 11 Norte 0 -- -- 71
2019-05-31 03:00:00 14.5 9 Norte 11 Noroeste 0 -- -- 67
2019-05-31 02:00:00 16.1 4 Oeste 13 Nordeste 0 -- -- 63
2019-05-31 01:00:00 17.4 8 Nordeste 18 Nordeste 0 -- -- 58
2019-05-31 00:00:00 18.8 13 Nordeste 22 Este 0 -- -- 53
2019-05-30 23:00:00 21.1 17 Nordeste 25 Nordeste 0 -- -- 42
2019-05-30 22:00:00 24 7 Nordeste 22 Nordeste 0 -- -- 32
2019-05-30 21:00:00 26.2 9 Este 14 Nordeste 0 -- -- 32
2019-05-30 20:00:00 28 5 Sudeste 17 Este 0 -- -- 28
2019-05-30 19:00:00 28.3 5 Oeste 22 Nordeste 0 -- -- 26
2019-05-30 18:00:00 27.9 5 Sudeste 15 Sudeste 0 -- -- 26
2019-05-30 17:00:00 27.6 8 Sudeste 15 Sudoeste 0 -- -- 27
2019-05-30 16:00:00 26.6 9 Sur 22 Sur 0 -- -- 30
2019-05-30 15:00:00 25.9 9 Sudeste 18 Sudeste 0 -- -- 31
2019-05-30 14:00:00 23.8 5 Este 14 Este 0 -- -- 34
2019-05-30 13:00:00 21.8 5 Sudeste 14 Sudoeste 0 -- -- 41
2019-05-30 12:00:00 19.2 3 Sudeste 13 Sudoeste 0 -- -- 48
2019-05-30 11:00:00 17.2 3 Sur 10 Sur 0 -- -- 53
2019-05-30 10:00:00 15.5 5 Oeste 8 Sudoeste 0 -- -- 59
2019-05-30 09:00:00 13.5 3 Noroeste 7 Noroeste 0 -- -- 65
2019-05-30 08:00:00 10.3 5 Noroeste 9 Noroeste 0 -- -- 73
2019-05-30 07:00:00 8 5 Noroeste 8 Noroeste 0 -- -- 80
2019-05-30 06:00:00 9.4 2 Este 8 Este 0 -- -- 75
2019-05-30 05:00:00 9.2 6 Norte 6 Norte 0 -- -- 74
2019-05-30 04:00:00 10 7 Norte 10 Norte 0 -- -- 72
2019-05-30 03:00:00 12 2 Norte 6 Sudeste 0 -- -- 64
2019-05-30 02:00:00 12.8 0 Calma 11 Este 0 -- -- 64
2019-05-30 01:00:00 13.7 6 Sudeste 9 Este 0 -- -- 61
2019-05-30 00:00:00 15.4 6 Nordeste 20 Este 0 -- -- 56
2019-05-29 23:00:00 17.4 10 Este 26 Este 0 -- -- 51
2019-05-29 22:00:00 20.3 12 Nordeste 23 Norte 0 -- -- 42
2019-05-29 21:00:00 23.5 12 Nordeste 22 Nordeste 0 -- -- 29
2019-05-29 20:00:00 24.9 4 Noroeste 14 Sudeste 0 -- -- 32
2019-05-29 19:00:00 24.1 9 Sudeste 15 Sudoeste 0 -- -- 34
2019-05-29 18:00:00 23.9 8 Sur 20 Este 0 -- -- 33
2019-05-29 17:00:00 23.3 9 Sudeste 18 Sudeste 0 -- -- 36
2019-05-29 16:00:00 22 8 Este 18 Este 0 -- -- 37
2019-05-29 15:00:00 20.8 6 Sudeste 22 Sudeste 0 -- -- 38
2019-05-29 14:00:00 19.2 9 Sudeste 17 Sudeste 0 -- -- 41
2019-05-29 13:00:00 17.2 7 Este 17 Sudeste 0 -- -- 46
2019-05-29 12:00:00 15.1 8 Sudeste 20 Sur 0 -- -- 50
2019-05-29 11:00:00 13.5 7 Sur 16 Sur 0 -- -- 55
2019-05-29 10:00:00 11.4 8 Sur 16 Sur 0 -- -- 62
2019-05-29 09:00:00 9.8 6 Sudoeste 10 Sudoeste 0 -- -- 67
2019-05-29 08:00:00 7.7 2 Noroeste 6 Noroeste 0 -- -- 74
2019-05-29 07:00:00 5.6 6 Norte 8 Noroeste 0 -- -- 80
2019-05-29 06:00:00 6.3 5 Sudoeste 11 Norte 0 -- -- 78
2019-05-29 05:00:00 7.5 10 Norte 12 Norte 0 -- -- 72
2019-05-29 04:00:00 8.2 2 Este 20 Noroeste 0 -- -- 69
2019-05-29 03:00:00 9 5 Oeste 26 Norte 0 -- -- 67
2019-05-29 02:00:00 9.6 24 Norte 34 Norte 0 -- -- 64
2019-05-29 01:00:00 10.2 28 Norte 35 Norte 0 -- -- 63
2019-05-29 00:00:00 11.1 24 Norte 30 Norte 0 -- -- 60
2019-05-28 23:00:00 11.9 27 Norte 40 Norte 0 -- -- 55
2019-05-28 22:00:00 13.1 28 Norte 45 Norte 0 -- -- 50
2019-05-28 21:00:00 15.2 35 Norte 50 Norte 0 -- -- 42
2019-05-28 20:00:00 17.1 35 Norte 49 Norte 0 -- -- 39
2019-05-28 19:00:00 18.8 27 Nordeste 44 Norte 0 -- -- 35
2019-05-28 18:00:00 19.7 32 Norte 50 Norte 0 -- -- 33
2019-05-28 17:00:00 20.6 33 Norte 48 Norte 0 -- -- 32
2019-05-28 16:00:00 21.1 28 Norte 44 Norte 0 -- -- 29
2019-05-28 15:00:00 20.9 12 Noroeste 32 Noroeste 0 -- -- 28
2019-05-28 14:00:00 19.5 9 Norte 26 Nordeste 0 -- -- 31
2019-05-28 13:00:00 19 14 Norte 32 Norte 0 -- -- 31
2019-05-28 12:00:00 16.1 10 Noroeste 19 Noroeste 0 -- -- 38
2019-05-28 11:00:00 13.5 8 Oeste 17 Noroeste 0 -- -- 47
2019-05-28 10:00:00 11.5 6 Oeste 11 Oeste 0 -- -- 56
2019-05-28 09:00:00 10.3 4 Norte 10 Norte 0 -- -- 60
2019-05-28 08:00:00 7.9 2 Noroeste 4 Noroeste 0 -- -- 69
2019-05-28 07:00:00 5.7 3 Sudoeste 5 Norte 0 -- -- 74
2019-05-28 06:00:00 6.2 2 Noroeste 8 Norte 0 -- -- 72
2019-05-28 05:00:00 7.1 3 Nordeste 10 Nordeste 0 -- -- 68
2019-05-28 04:00:00 7.8 5 Nordeste 12 Nordeste 0 -- -- 65
2019-05-28 03:00:00 8 5 Nordeste 14 Nordeste 0 -- -- 65
2019-05-28 02:00:00 8 13 Nordeste 18 Nordeste 0 -- -- 65
2019-05-28 01:00:00 9.8 9 Nordeste 19 Nordeste 0 -- -- 58
2019-05-28 00:00:00 10.8 9 Nordeste 19 Nordeste 0 -- -- 56
2019-05-27 23:00:00 12.1 8 Nordeste 18 Nordeste 0 -- -- 53
2019-05-27 22:00:00 13.9 12 Nordeste 26 Norte 0 -- -- 51
2019-05-27 21:00:00 16.2 18 Nordeste 39 Norte 0 -- -- 47
2019-05-27 20:00:00 18.3 27 Nordeste 45 Nordeste 0 -- -- 42
2019-05-27 19:00:00 21.6 22 Nordeste 33 Nordeste 0 -- -- 36
2019-05-27 18:00:00 22.2 19 Nordeste 36 Nordeste 0 -- -- 35
2019-05-27 17:00:00 22.9 17 Norte 36 Norte 0 -- -- 34
2019-05-27 16:00:00 23 18 Norte 44 Noroeste 0 -- -- 36
2019-05-27 15:00:00 22.6 22 Nordeste 37 Norte 0 -- -- 38
2019-05-27 14:00:00 22.7 18 Nordeste 33 Nordeste 0 -- -- 38
2019-05-27 13:00:00 21.1 11 Nordeste 23 Norte 0 -- -- 45
2019-05-27 12:00:00 20.6 7 Noroeste 25 Oeste 0 -- -- 46
2019-05-27 11:00:00 18.9 7 Oeste 22 Oeste 0 -- -- 51
2019-05-27 10:00:00 17.3 13 Oeste 21 Oeste 0 -- -- 56
2019-05-27 09:00:00 14.6 12 Noroeste 15 Oeste 0 -- -- 65
2019-05-27 08:00:00 12.4 10 Noroeste 14 Noroeste 0 -- -- 71
2019-05-27 07:00:00 9.4 6 Norte 13 Norte 0 -- -- 76
2019-05-27 06:00:00 10.1 6 Norte 11 Noroeste 0 -- -- 74
2019-05-27 05:00:00 11.7 11 Noroeste 18 Noroeste 0 -- -- 72
2019-05-27 04:00:00 12.1 7 Noroeste 14 Noroeste 0 -- -- 69
2019-05-27 03:00:00 12.6 3 Oeste 7 Oeste 0 -- -- 63
2019-05-27 02:00:00 13.4 3 Nordeste 10 Nordeste 0 -- -- 58
2019-05-27 01:00:00 14.8 6 Nordeste 15 Nordeste 0 -- -- 54
2019-05-27 00:00:00 15.8 12 Nordeste 18 Nordeste 0 -- -- 53
2019-05-26 23:00:00 17.5 8 Nordeste 21 Norte 0 -- -- 48
2019-05-26 22:00:00 19 13 Nordeste 24 Nordeste 0 -- -- 45
2019-05-26 21:00:00 22.1 17 Nordeste 30 Nordeste 0 -- -- 34
2019-05-26 20:00:00 24.5 19 Nordeste 35 Norte 0 -- -- 29
2019-05-26 19:00:00 25.6 23 Nordeste 36 Norte 0 -- -- 28
2019-05-26 18:00:00 26.7 23 Norte 39 Norte 0 -- -- 27
2019-05-26 17:00:00 26.9 23 Norte 40 Norte 0 -- -- 23
2019-05-26 16:00:00 26.6 15 Norte 35 Norte 0 -- -- 26
2019-05-26 15:00:00 24.4 13 Sur 23 Sudoeste 0 -- -- 35
2019-05-26 14:00:00 22.5 7 Sudoeste 18 Sudoeste 0 -- -- 40
2019-05-26 13:00:00 19.3 6 Sudoeste 18 Sudoeste 0 -- -- 47
2019-05-26 12:00:00 16.4 7 Sur 15 Sur 0 -- -- 54
2019-05-26 11:00:00 13.8 8 Sur 19 Sur 0 -- -- 62
2019-05-26 10:00:00 11.7 7 Sur 14 Sur 0 -- -- 69
2019-05-26 09:00:00 9.6 8 Sudoeste 13 Sudoeste 0 -- -- 75
2019-05-26 08:00:00 8.3 8 Sudoeste 10 Sudoeste 0 -- -- 80
2019-05-26 07:00:00 6.8 5 Sudoeste 10 Sur 0 -- -- 84
2019-05-26 06:00:00 7.1 5 Sudoeste 10 Sudoeste 0 -- -- 81
2019-05-26 05:00:00 7.9 6 Sudoeste 9 Sudoeste 0 -- -- 79
2019-05-26 04:00:00 8.6 5 Sudoeste 8 Sur 0 -- -- 77
2019-05-26 03:00:00 9.8 4 Sur 7 Sudeste 0 -- -- 72
2019-05-26 02:00:00 10.7 3 Oeste 13 Este 0 -- -- 73
2019-05-26 01:00:00 11.2 10 Este 15 Nordeste 0 -- -- 71
2019-05-26 00:00:00 12.9 12 Nordeste 21 Nordeste 0 -- -- 65
2019-05-25 23:00:00 14.1 11 Nordeste 22 Norte 0 -- -- 58
2019-05-25 22:00:00 17.3 18 Norte 26 Norte 0 -- -- 45
2019-05-25 21:00:00 19.9 20 Norte 35 Norte 0 -- -- 39
2019-05-25 20:00:00 21.8 25 Noroeste 37 Norte 0 -- -- 35
2019-05-25 19:00:00 23.1 24 Noroeste 36 Norte 0 -- -- 31
2019-05-25 18:00:00 23.1 19 Norte 37 Norte 0 -- -- 29
2019-05-25 17:00:00 22.9 17 Norte 48 Norte 0 -- -- 27
2019-05-25 16:00:00 22.3 10 Norte 27 Norte 0 -- -- 27
2019-05-25 15:00:00 21.3 9 Sudoeste 26 Oeste 0 -- -- 32
2019-05-25 14:00:00 19.8 9 Noroeste 24 Nordeste 0 -- -- 35
2019-05-25 13:00:00 18.4 8 Este 23 Este 0 -- -- 38
2019-05-25 12:00:00 16.4 10 Este 19 Nordeste 0 -- -- 42
2019-05-25 11:00:00 15.1 12 Nordeste 27 Nordeste 0 -- -- 45
2019-05-25 10:00:00 14.1 16 Norte 25 Norte 0 -- -- 48
2019-05-25 09:00:00 11.7 18 Norte 27 Norte 0 -- -- 58
2019-05-25 08:00:00 8.7 8 Norte 15 Norte 0 -- -- 70
2019-05-25 07:00:00 6.1 11 Norte 15 Norte 0 -- -- 78
2019-05-25 06:00:00 6.3 2 Norte 18 Norte 0 -- -- 78
2019-05-25 05:00:00 7.5 15 Noroeste 21 Norte 0 -- -- 74
2019-05-25 04:00:00 8.8 0 Calma 6 Noroeste 0 -- -- 70
2019-05-25 03:00:00 9.6 2 Noroeste 36 Norte 0 -- -- 66
2019-05-25 02:00:00 10.7 24 Norte 32 Noroeste 0 -- -- 63
2019-05-25 01:00:00 10.6 9 Noroeste 20 Norte 0 -- -- 64
2019-05-25 00:00:00 11.5 14 Norte 29 Norte 0 -- -- 60
2019-05-24 23:00:00 12.4 17 Norte 30 Norte 0 -- -- 56
2019-05-24 22:00:00 13.2 26 Norte 35 Norte 0 -- -- 53
2019-05-24 21:00:00 14.5 28 Norte 40 Norte 0 -- -- 49
2019-05-24 20:00:00 16.4 28 Norte 41 Noroeste 0 -- -- 43
2019-05-24 19:00:00 17.4 30 Norte 44 Norte 0 -- -- 36
2019-05-24 18:00:00 18.4 23 Nordeste 43 Norte 0 -- -- 34
2019-05-24 17:00:00 19 27 Nordeste 46 Norte 0 -- -- 34
2019-05-24 16:00:00 18.4 24 Nordeste 41 Nordeste 0 -- -- 36
2019-05-24 15:00:00 18.3 21 Nordeste 38 Nordeste 0 -- -- 37
2019-05-24 14:00:00 17.6 19 Nordeste 34 Nordeste 0 -- -- 39
2019-05-24 13:00:00 16.6 18 Nordeste 41 Norte 0 -- -- 41
2019-05-24 12:00:00 15.9 18 Nordeste 33 Norte 0 -- -- 44
2019-05-24 11:00:00 14.5 15 Norte 28 Norte 0 -- -- 45
2019-05-24 10:00:00 13.1 17 Noroeste 30 Noroeste 0 -- -- 48
2019-05-24 09:00:00 10.1 15 Norte 22 Norte 0 -- -- 56
2019-05-24 08:00:00 -- 9 Noroeste 16 Noroeste 0 -- -- --
2019-05-24 07:00:00 -- 7 Noroeste 12 Norte 0 -- -- --
2019-05-24 06:00:00 -- 7 Noroeste 13 Noroeste 0 -- -- --
2019-05-24 05:00:00 -- 10 Noroeste 14 Noroeste 0 -- -- --
2019-05-24 04:00:00 -- 9 Norte 22 Noroeste 0 -- -- --
2019-05-24 03:00:00 -- 13 Noroeste 21 Noroeste 0 -- -- --
2019-05-24 02:00:00 -- 11 Norte 24 Noroeste 0 -- -- --
2019-05-24 01:00:00 -- 19 Norte 26 Norte 0 -- -- --
2019-05-24 00:00:00 -- 12 Norte 23 Norte 0 -- -- --
2019-05-23 23:00:00 -- 17 Norte 32 Norte 0 -- -- --
2019-05-23 22:00:00 -- 24 Norte 35 Noroeste 0 -- -- --
2019-05-23 21:00:00 -- 23 Noroeste 44 Noroeste 0 -- -- --
2019-05-23 20:00:00 -- 32 Noroeste 45 Noroeste 0 -- -- --
2019-05-23 19:00:00 -- 33 Oeste 43 Noroeste 0 -- -- --
2019-05-23 18:00:00 -- 24 Oeste 36 Noroeste 0 -- -- --
2019-05-23 17:00:00 -- 15 Oeste 27 Sudoeste 0 -- -- --
2019-05-23 16:00:00 -- 8 Oeste 19 Sudoeste 0 -- -- --
2019-05-23 15:00:00 -- 8 Sudeste 22 Sur 0 -- -- --
2019-05-23 14:00:00 -- 10 Sudoeste 21 Oeste 0 -- -- --
2019-05-23 13:00:00 -- 13 Noroeste 24 Noroeste 0 -- -- --
2019-05-23 12:00:00 -- -- -- -- -- -- -- -- --
2019-05-23 11:00:00 -- -- -- -- -- -- -- -- --
2019-05-23 10:00:00 -- -- -- -- -- -- -- -- --
2019-05-23 09:00:00 -- -- -- -- -- -- -- -- --
2019-05-23 08:00:00 -- -- -- -- -- -- -- -- --
2019-05-23 07:00:00 -- -- -- -- -- -- -- -- --
2019-05-23 06:00:00 -- -- -- -- -- -- -- -- --
2019-05-23 05:00:00 -- -- -- -- -- -- -- -- --
2019-05-23 04:00:00 -- -- -- -- -- -- -- -- --
2019-05-23 03:00:00 -- -- -- -- -- -- -- -- --
2019-05-23 02:00:00 -- -- -- -- -- -- -- -- --
2019-05-23 01:00:00 -- -- -- -- -- -- -- -- --
2019-05-23 00:00:00 -- -- -- -- -- -- -- -- --
2019-05-22 23:00:00 -- -- -- -- -- -- -- -- --
2019-05-22 22:00:00 -- -- -- -- -- -- -- -- --
2019-05-22 21:00:00 -- -- -- -- -- -- -- -- --
2019-05-22 20:00:00 -- -- -- -- -- -- -- -- --
2019-05-22 19:00:00 -- -- -- -- -- -- -- -- --
2019-05-22 18:00:00 -- -- -- -- -- -- -- -- --
2019-05-22 17:00:00 -- -- -- -- -- -- -- -- --
2019-05-22 16:00:00 -- -- -- -- -- -- -- -- --
2019-05-22 15:00:00 -- -- -- -- -- -- -- -- --
2019-05-22 14:00:00 -- -- -- -- -- -- -- -- --
2019-05-22 13:00:00 -- -- -- -- -- -- -- -- --
2019-05-22 12:00:00 -- -- -- -- -- -- -- -- --
2019-05-22 11:00:00 -- -- -- -- -- -- -- -- --
2019-05-22 10:00:00 -- -- -- -- -- -- -- -- --
2019-05-22 09:00:00 -- -- -- -- -- -- -- -- --
2019-05-22 08:00:00 -- -- -- 14 Nordeste 0 -- -- --
2019-05-22 07:00:00 -- -- -- 9 Nordeste 0 -- -- --
2019-05-22 06:00:00 -- -- -- 8 Norte 0 -- -- --
2019-05-22 05:00:00 -- -- -- 6 Norte 0 -- -- --
2019-05-22 04:00:00 -- -- -- 11 Nordeste 0 -- -- --
2019-05-22 03:00:00 -- -- -- 8 Norte 0 -- -- --
2019-05-22 02:00:00 -- -- -- 25 Norte 0 -- -- --
2019-05-22 01:00:00 -- -- -- 20 Nordeste 0 -- -- --
2019-05-22 00:00:00 -- -- -- 35 Norte 0 -- -- --
2019-05-21 23:00:00 -- 23 Nordeste 33 Nordeste 0 -- -- --
2019-05-21 22:00:00 -- 9 Nordeste 13 Nordeste 0 -- -- --
2019-05-21 21:00:00 -- 5 Oeste 10 Oeste 0 -- -- --
2019-05-21 20:00:00 -- 3 Nordeste 12 Oeste 0 -- -- --
2019-05-21 19:00:00 -- 5 Norte 17 Norte 0 -- -- --
2019-05-21 18:00:00 -- 9 Noroeste 19 Norte 0 -- -- --
2019-05-21 17:00:00 -- -- -- 21 Norte 0 -- -- --
2019-05-21 16:00:00 -- -- -- 24 Nordeste 0 -- -- --
2019-05-21 15:00:00 -- -- -- 19 Nordeste 0 -- -- --
2019-05-21 14:00:00 -- -- -- 18 Norte 0 -- -- --
2019-05-21 13:00:00 -- 8 Sudeste 17 Este 0 -- -- --
2019-05-21 12:00:00 -- 7 Este 17 Nordeste 0 -- -- --
2019-05-21 11:00:00 -- 9 Este 17 Este 0 -- -- --
2019-05-21 10:00:00 -- 5 Este 10 Norte 0 -- -- --
2019-05-21 09:00:00 -- -- -- 10 Nordeste 0 -- -- --
2019-05-21 08:00:00 -- -- -- 9 Norte 0 -- -- --
2019-05-21 07:00:00 -- -- -- 11 Norte 0 -- -- --
2019-05-21 06:00:00 -- -- -- 8 Norte 0 -- -- --
2019-05-21 05:00:00 -- 4 Norte 7 Norte 0 -- -- --
2019-05-21 04:00:00 -- 3 Este 6 Norte 0 -- -- --
2019-05-21 03:00:00 -- 2 Sudeste 14 Este 0 -- -- --
2019-05-21 02:00:00 -- 7 Nordeste 18 Norte 0 -- -- --
2019-05-21 01:00:00 -- 12 Norte 26 Nordeste 0 -- -- --
2019-05-21 00:00:00 -- 16 Noroeste 25 Noroeste 0 -- -- --
2019-05-20 23:00:00 -- 19 Noroeste 26 Noroeste 0 -- -- --
2019-05-20 22:00:00 -- 20 Noroeste 27 Oeste 0 -- -- --
2019-05-20 21:00:00 -- 2 Norte 4 Sur 0 -- -- --
2019-05-20 20:00:00 -- 2 Nordeste 6 Norte 0 -- -- --
2019-05-20 19:00:00 -- -- -- 14 Nordeste 0 -- -- --
2019-05-20 18:00:00 -- -- -- 19 Nordeste 0 -- -- --
2019-05-20 17:00:00 -- -- -- 21 Norte 0 -- -- --
2019-05-20 16:00:00 -- -- -- 18 Norte 0 -- -- --
2019-05-20 15:00:00 -- -- -- 20 Norte 0 -- -- --
2019-05-20 14:00:00 -- 5 Norte 17 Norte 0 -- -- --
2019-05-20 13:00:00 -- 4 Sur 18 Norte 0 -- -- --
2019-05-20 12:00:00 -- -- -- 10 Norte 0 -- -- --
2019-05-20 11:00:00 -- -- -- 7 Norte 0 -- -- --
2019-05-20 10:00:00 -- -- -- 5 Norte 0 -- -- --
2019-05-20 09:00:00 -- -- -- 5 Norte 0 -- -- --
2019-05-20 08:00:00 -- -- -- 6 Norte 0 -- -- --
2019-05-20 07:00:00 -- -- -- 6 Norte 0 -- -- --
2019-05-20 06:00:00 -- -- -- 5 Norte 0 -- -- --
2019-05-20 05:00:00 -- -- -- 6 Norte 0 -- -- --
2019-05-20 04:00:00 -- -- -- 9 Nordeste 0 -- -- --
2019-05-20 03:00:00 -- -- -- 8 Norte 0 -- -- --
2019-05-20 02:00:00 -- -- -- 12 Norte 0 -- -- --
2019-05-20 01:00:00 -- -- -- 19 Norte 0 -- -- --
2019-05-20 00:00:00 -- -- -- 23 Norte 0 -- -- --
2019-05-19 23:00:00 -- 11 Nordeste 24 Nordeste 0 -- -- --
2019-05-19 22:00:00 -- 12 Nordeste 24 Nordeste 0 -- -- --
2019-05-19 21:00:00 -- -- -- 31 Este 0 -- -- --
2019-05-19 20:00:00 -- -- -- 15 Nordeste 0 -- -- --
2019-05-19 19:00:00 -- -- -- 19 Nordeste 0 -- -- --
2019-05-19 18:00:00 -- -- -- 21 Nordeste 0 -- -- --
2019-05-19 17:00:00 -- -- -- 32 Nordeste 0 -- -- --
2019-05-19 16:00:00 -- -- -- 21 Nordeste 0 -- -- --
2019-05-19 15:00:00 -- -- -- 25 Este 0 -- -- --
2019-05-19 14:00:00 -- -- -- 21 Nordeste 0 -- -- --
2019-05-19 13:00:00 -- -- -- 24 Nordeste 0 -- -- --
2019-05-19 12:00:00 -- -- -- 18 Nordeste 0 -- -- --
2019-05-19 11:00:00 -- -- -- 19 Nordeste 0 -- -- --
2019-05-19 10:00:00 -- -- -- 26 Nordeste 0 -- -- --
2019-05-19 09:00:00 -- -- -- 22 Nordeste 0 -- -- --
2019-05-19 08:00:00 -- -- -- 21 Nordeste 0 -- -- --
2019-05-19 07:00:00 -- -- -- 15 Nordeste 0 -- -- --
2019-05-19 06:00:00 -- -- -- 13 Nordeste 0 -- -- --
2019-05-19 05:00:00 -- -- -- 15 Nordeste 0 -- -- --
2019-05-19 04:00:00 -- -- -- 19 Nordeste 0 -- -- --
2019-05-19 03:00:00 -- -- -- 23 Nordeste 0 -- -- --
2019-05-19 02:00:00 -- -- -- 19 Nordeste 0 -- -- --
2019-05-19 01:00:00 -- -- -- 15 Nordeste 0 -- -- --
2019-05-19 00:00:00 -- -- -- 21 Nordeste 0 -- -- --
2019-05-18 23:00:00 -- -- -- 23 Nordeste 0 -- -- --
2019-05-18 22:00:00 -- -- -- 34 Este 0 -- -- --
2019-05-18 21:00:00 -- -- -- 49 Este 0 -- -- --
2019-05-18 20:00:00 -- -- -- 46 Este 0 -- -- --
2019-05-18 19:00:00 -- -- -- 47 Este 0 -- -- --
2019-05-18 18:00:00 -- -- -- 46 Sudeste 0 -- -- --
2019-05-18 17:00:00 -- -- -- 50 Sudeste 0 -- -- --
2019-05-18 16:00:00 -- -- -- 45 Sudeste 0 -- -- --
2019-05-18 15:00:00 -- -- -- 41 Sudeste 0 -- -- --
2019-05-18 14:00:00 -- -- -- 46 Sudeste 0 -- -- --
2019-05-18 13:00:00 -- -- -- 46 Sudeste 0 -- -- --
2019-05-18 12:00:00 -- -- -- 43 Sudeste 0 -- -- --
2019-05-18 11:00:00 -- -- -- 47 Sudeste 0 -- -- --
2019-05-18 10:00:00 -- -- -- 45 Sudeste 0 -- -- --
2019-05-18 09:00:00 -- -- -- 42 Sudeste 0 -- -- --
2019-05-18 08:00:00 -- -- -- 32 Este 0 -- -- --
2019-05-18 07:00:00 -- -- -- 15 Nordeste 0 -- -- --
2019-05-18 06:00:00 -- -- -- 24 Nordeste 0 -- -- --
2019-05-18 05:00:00 -- -- -- 27 Este 0 -- -- --
2019-05-18 04:00:00 -- -- -- 28 Nordeste 0 -- -- --
2019-05-18 03:00:00 -- -- -- 32 Este 0 -- -- --
2019-05-18 02:00:00 -- -- -- 35 Este 0 -- -- --
2019-05-18 01:00:00 -- -- -- 36 Este 0 -- -- --
2019-05-18 00:00:00 -- -- -- 30 Este 0 -- -- --
2019-05-17 23:00:00 -- -- -- 39 Este 0 -- -- --
2019-05-17 22:00:00 -- -- -- 37 Este 0 -- -- --
2019-05-17 21:00:00 -- -- -- 50 Este 0 -- -- --
2019-05-17 20:00:00 -- -- -- 54 Sudeste 0 -- -- --
2019-05-17 19:00:00 -- -- -- 52 Sudeste 0 -- -- --
2019-05-17 18:00:00 -- -- -- 54 Sudeste 0 -- -- --
2019-05-17 17:00:00 -- -- -- 56 Sudeste 0 -- -- --
2019-05-17 16:00:00 -- -- -- 58 Sudeste 0 -- -- --
2019-05-17 15:00:00 -- -- -- 50 Sudeste 0 -- -- --
2019-05-17 14:00:00 -- -- -- 42 Sudeste 0 -- -- --
2019-05-17 13:00:00 -- -- -- 43 Sudeste 0 -- -- --
2019-05-17 12:00:00 -- -- -- 40 Este 0 -- -- --
2019-05-17 11:00:00 -- -- -- 37 Este 0 -- -- --
2019-05-17 10:00:00 -- -- -- 40 Este 0 -- -- --
2019-05-17 09:00:00 -- -- -- 38 Este 0 -- -- --
2019-05-17 08:00:00 -- -- -- 43 Este 0 -- -- --
2019-05-17 07:00:00 -- -- -- 38 Este 0 -- -- --
2019-05-17 06:00:00 -- -- -- 42 Este 0 -- -- --
2019-05-17 05:00:00 -- -- -- 39 Este 0 -- -- --
2019-05-17 04:00:00 -- -- -- 36 Este 0 -- -- --
2019-05-17 03:00:00 -- -- -- 33 Este 0 -- -- --
2019-05-17 02:00:00 -- -- -- 31 Este 0 -- -- --
2019-05-17 01:00:00 -- -- -- 32 Este 0 -- -- --
2019-05-17 00:00:00 -- -- -- 41 Nordeste 0 -- -- --